Time;durP1;ratioP1;P1;durP2;ratioP2;P2;SDS_P1;SDS_P2;PMS_P1;PMS_P2;Temp;Humidity;BMP_temperature;BMP_pressure;BME280_temperature;BME280_humidity;BME280_pressure;Samples;Min_cycle;Max_cycle;Signal;HPM_P1;HPM_P2
2021/12/28 00:02:00;;;;;;;;;;;10.30;87.10;;;;;;5014372;28;19924;-63
2021/12/28 00:04:26;;;;;;;;;;;10.30;87.30;;;;;;5014305;28;19981;-63
2021/12/28 00:06:51;;;;;;;;;;;10.20;87.20;;;;;;5014564;28;19917;-62
2021/12/28 00:09:17;;;;;;;;;;;10.20;87.40;;;;;;5014162;28;19992;-62
2021/12/28 00:11:42;;;;;;;;;;;10.20;87.50;;;;;;5013274;28;20269;-63
2021/12/28 00:14:09;;;;;;;;;;;10.20;87.60;;;;;;5013927;28;19909;-64
2021/12/28 00:17:58;;;;;;;;;;;10.20;87.70;;;;;;5014154;28;19917;-64
2021/12/28 00:19:20;;;;;;;;;;;10.20;88.00;;;;;;5013868;28;19909;-63
2021/12/28 00:21:45;;;;;;;;;;;10.20;88.00;;;;;;5013851;28;20277;-63
2021/12/28 00:24:11;;;;;;;;;;;10.20;88.40;;;;;;5013874;28;19916;-63
2021/12/28 00:26:37;;;;;;;;;;;10.20;88.40;;;;;;5014072;28;20273;-62
2021/12/28 00:29:02;;;;;;;;;;;10.20;88.50;;;;;;5014014;28;19916;-62
2021/12/28 00:31:28;;;;;;;;;;;10.10;88.50;;;;;;5013628;28;19914;-63
2021/12/28 00:33:57;;;;;;;;;;;10.10;88.40;;;;;;5013626;28;20419;-63
2021/12/28 00:36:23;;;;;;;;;;;10.20;87.90;;;;;;5013682;28;19909;-62
2021/12/28 00:38:48;;;;;;;;;;;10.20;87.30;;;;;;5013881;28;19971;-63
2021/12/28 00:41:14;;;;;;;;;;;10.20;87.30;;;;;;5013742;28;19918;-62
2021/12/28 00:43:40;;;;;;;;;;;10.10;87.20;;;;;;5013582;28;19909;-63
2021/12/28 00:46:06;;;;;;;;;;;10.10;87.20;;;;;;5013620;28;19956;-63
2021/12/28 00:48:32;;;;;;;;;;;10.20;87.40;;;;;;5013420;28;20332;-64
2021/12/28 00:50:57;;;;;;;;;;;10.10;87.30;;;;;;5013382;28;19914;-63
2021/12/28 00:53:23;;;;;;;;;;;10.20;87.50;;;;;;5013684;28;19910;-63
2021/12/28 00:55:49;;;;;;;;;;;10.10;87.60;;;;;;5013409;28;19916;-63
2021/12/28 00:58:15;;;;;;;;;;;10.10;87.80;;;;;;5013578;28;19916;-63
2021/12/28 01:00:41;;;;;;;;;;;10.10;87.90;;;;;;5013142;28;19909;-63
2021/12/28 01:03:07;;;;;;;;;;;10.20;87.60;;;;;;5013482;28;19933;-63
2021/12/28 01:05:33;;;;;;;;;;;10.20;87.50;;;;;;5013340;28;19909;-63
2021/12/28 01:07:59;;;;;;;;;;;10.20;87.60;;;;;;5013360;28;20373;-63
2021/12/28 01:10:30;;;;;;;;;;;10.30;87.20;;;;;;5013391;28;19916;-62
2021/12/28 01:12:56;;;;;;;;;;;10.30;86.80;;;;;;5013300;28;19909;-63
2021/12/28 01:15:23;;;;;;;;;;;10.30;86.60;;;;;;5013319;28;20056;-62
2021/12/28 01:17:48;;;;;;;;;;;10.20;87.20;;;;;;5013220;28;19909;-62
2021/12/28 01:20:14;;;;;;;;;;;10.20;87.70;;;;;;5013508;28;19977;-62
2021/12/28 01:22:40;;;;;;;;;;;10.20;88.20;;;;;;5014903;28;20003;-63
2021/12/28 01:25:06;;;;;;;;;;;10.20;88.10;;;;;;5017133;28;19910;-62
2021/12/28 01:27:32;;;;;;;;;;;10.10;88.20;;;;;;5017093;28;19909;-63
2021/12/28 01:29:58;;;;;;;;;;;10.10;88.50;;;;;;5016983;28;19914;-62
2021/12/28 01:32:23;;;;;;;;;;;10.10;88.50;;;;;;5017504;28;19910;-63
2021/12/28 01:34:49;;;;;;;;;;;10.10;88.80;;;;;;5017045;28;19910;-63
2021/12/28 01:37:14;;;;;;;;;;;10.10;88.80;;;;;;5017156;28;19910;-63
2021/12/28 01:39:40;;;;;;;;;;;10.10;88.80;;;;;;5016624;28;19909;-63
2021/12/28 01:42:07;;;;;;;;;;;10.10;88.80;;;;;;5017073;28;19918;-63
2021/12/28 01:44:32;;;;;;;;;;;10.10;89.00;;;;;;5016791;28;19971;-63
2021/12/28 01:46:58;;;;;;;;;;;10.10;89.20;;;;;;5016744;28;20328;-63
2021/12/28 01:49:24;;;;;;;;;;;10.10;89.50;;;;;;5016929;28;19922;-63
2021/12/28 01:51:49;;;;;;;;;;;10.10;89.60;;;;;;5016564;28;19964;-63
2021/12/28 01:54:15;;;;;;;;;;;10.10;89.50;;;;;;5016963;28;19909;-69
2021/12/28 01:56:44;;;;;;;;;;;10.10;89.50;;;;;;5016865;28;19917;-63
2021/12/28 01:59:10;;;;;;;;;;;10.10;89.60;;;;;;5016920;28;19913;-63
2021/12/28 02:01:36;;;;;;;;;;;10.10;89.50;;;;;;5016792;28;19980;-63
2021/12/28 02:04:02;;;;;;;;;;;10.10;89.40;;;;;;5016708;28;20243;-66
2021/12/28 02:06:29;;;;;;;;;;;10.10;89.80;;;;;;5016829;28;19909;-62
2021/12/28 02:08:55;;;;;;;;;;;10.10;89.00;;;;;;5016658;28;20004;-63
2021/12/28 02:11:21;;;;;;;;;;;10.10;89.20;;;;;;5016550;28;19964;-63
2021/12/28 02:13:47;;;;;;;;;;;10.10;89.30;;;;;;5016401;28;20373;-63
2021/12/28 02:16:13;;;;;;;;;;;10.10;89.10;;;;;;5016178;28;19996;-64
2021/12/28 02:18:38;;;;;;;;;;;10.10;89.10;;;;;;5016464;28;19989;-63
2021/12/28 02:21:05;;;;;;;;;;;10.10;89.40;;;;;;5016049;28;19917;-63
2021/12/28 02:23:31;;;;;;;;;;;10.20;89.40;;;;;;5016021;28;19910;-64
2021/12/28 02:25:56;;;;;;;;;;;10.20;89.30;;;;;;5016116;28;19976;-64
2021/12/28 02:28:22;;;;;;;;;;;10.10;89.10;;;;;;5016050;28;20365;-63
2021/12/28 02:30:49;;;;;;;;;;;10.10;89.00;;;;;;5016024;28;19967;-62
2021/12/28 02:33:15;;;;;;;;;;;10.10;89.20;;;;;;5017040;28;19916;-65
2021/12/28 02:35:41;;;;;;;;;;;10.10;89.40;;;;;;5029204;28;19910;-66
2021/12/28 02:38:08;;;;;;;;;;;10.10;89.60;;;;;;5031274;28;19913;-64
2021/12/28 02:40:34;;;;;;;;;;;10.10;89.70;;;;;;5027618;28;19909;-67
2021/12/28 02:43:00;;;;;;;;;;;10.10;89.60;;;;;;5030255;28;19914;-62
2021/12/28 02:45:27;;;;;;;;;;;10.10;89.40;;;;;;5031914;28;19909;-63
2021/12/28 02:47:53;;;;;;;;;;;10.10;89.00;;;;;;5019646;28;19979;-63
2021/12/28 02:50:20;;;;;;;;;;;10.10;89.20;;;;;;5015929;28;20373;-63
2021/12/28 02:52:46;;;;;;;;;;;10.10;89.30;;;;;;5015459;28;19996;-62
2021/12/28 02:55:13;;;;;;;;;;;10.10;89.40;;;;;;5015683;28;19945;-63
2021/12/28 02:57:44;;;;;;;;;;;10.10;89.20;;;;;;5015547;28;19916;-64
2021/12/28 03:00:10;;;;;;;;;;;10.10;89.30;;;;;;5015492;28;19913;-62
2021/12/28 03:02:36;;;;;;;;;;;10.10;89.20;;;;;;5015386;28;20496;-63
2021/12/28 03:05:01;;;;;;;;;;;10.10;89.20;;;;;;5015316;28;19909;-63
2021/12/28 03:07:30;;;;;;;;;;;10.10;89.20;;;;;;5015210;28;19909;-62
2021/12/28 03:09:55;;;;;;;;;;;10.20;89.00;;;;;;5015252;28;19955;-63
2021/12/28 03:12:21;;;;;;;;;;;10.20;88.90;;;;;;5015308;28;20266;-62
2021/12/28 03:14:48;;;;;;;;;;;10.20;89.10;;;;;;5015247;28;19963;-62
2021/12/28 03:17:13;;;;;;;;;;;10.10;89.20;;;;;;5015111;28;19909;-62
2021/12/28 03:19:39;;;;;;;;;;;10.10;89.30;;;;;;5015060;28;19909;-62
2021/12/28 03:22:04;;;;;;;;;;;10.10;89.50;;;;;;5015010;28;20324;-64
2021/12/28 03:24:30;;;;;;;;;;;10.10;89.30;;;;;;5015097;28;20323;-62
2021/12/28 03:26:55;;;;;;;;;;;10.10;89.40;;;;;;5018622;28;19910;-63
2021/12/28 03:29:21;;;;;;;;;;;10.10;89.50;;;;;;5018690;28;19963;-63
2021/12/28 03:31:47;;;;;;;;;;;10.10;89.40;;;;;;5015195;28;20274;-63
2021/12/28 03:34:12;;;;;;;;;;;10.20;88.90;;;;;;5014891;28;20385;-63
2021/12/28 03:36:38;;;;;;;;;;;10.20;88.60;;;;;;5014616;28;19977;-62
2021/12/28 03:39:04;;;;;;;;;;;10.20;88.60;;;;;;5014975;28;20344;-62
2021/12/28 03:41:30;;;;;;;;;;;10.40;88.00;;;;;;5014363;28;19917;-62
2021/12/28 03:43:56;;;;;;;;;;;10.60;87.20;;;;;;5014840;28;20270;-63
2021/12/28 03:46:24;;;;;;;;;;;10.80;86.20;;;;;;5014716;28;19931;-62
2021/12/28 03:48:49;;;;;;;;;;;10.80;85.80;;;;;;5013874;28;19940;-62
2021/12/28 03:51:15;;;;;;;;;;;10.70;85.90;;;;;;5014396;28;20003;-62
2021/12/28 03:53:41;;;;;;;;;;;10.50;86.80;;;;;;5014284;28;20380;-62
2021/12/28 03:56:07;;;;;;;;;;;10.30;87.60;;;;;;5014430;28;20452;-62
2021/12/28 03:58:33;;;;;;;;;;;10.30;88.20;;;;;;5014447;28;20017;-63
2021/12/28 04:01:00;;;;;;;;;;;10.30;88.20;;;;;;5014038;28;20011;-62
2021/12/28 04:03:25;;;;;;;;;;;10.30;88.00;;;;;;5013879;28;19937;-62
2021/12/28 04:05:51;;;;;;;;;;;10.30;88.20;;;;;;5025264;28;19909;-62
2021/12/28 04:08:21;;;;;;;;;;;10.30;88.50;;;;;;5014246;28;20006;-62
2021/12/28 04:10:54;;;;;;;;;;;10.20;88.90;;;;;;5014105;28;19921;-63
2021/12/28 04:13:22;;;;;;;;;;;10.20;88.90;;;;;;5015385;28;20004;-63
2021/12/28 04:15:48;;;;;;;;;;;10.20;89.20;;;;;;5015343;28;19910;-63
2021/12/28 04:18:14;;;;;;;;;;;10.20;89.40;;;;;;5013779;28;19916;-62
2021/12/28 04:20:40;;;;;;;;;;;10.20;89.40;;;;;;5013864;28;19910;-62
2021/12/28 04:23:06;;;;;;;;;;;10.10;89.50;;;;;;5013889;28;19917;-62
2021/12/28 04:25:33;;;;;;;;;;;10.10;89.70;;;;;;5013698;28;20294;-62
2021/12/28 04:27:59;;;;;;;;;;;10.10;89.80;;;;;;5013800;28;19917;-63
2021/12/28 04:30:26;;;;;;;;;;;10.10;89.80;;;;;;5012913;28;20078;-62
2021/12/28 04:32:52;;;;;;;;;;;10.10;90.00;;;;;;5013624;28;19910;-63
2021/12/28 04:35:17;;;;;;;;;;;10.10;90.00;;;;;;5013770;28;19997;-64
2021/12/28 04:37:43;;;;;;;;;;;10.10;90.00;;;;;;5013803;28;19914;-62
2021/12/28 04:40:11;;;;;;;;;;;10.10;90.00;;;;;;5013706;28;19909;-62
2021/12/28 04:42:37;;;;;;;;;;;10.10;90.00;;;;;;5013520;28;19960;-63
2021/12/28 04:45:03;;;;;;;;;;;10.20;90.00;;;;;;5013740;28;19909;-62
2021/12/28 04:47:28;;;;;;;;;;;10.20;90.00;;;;;;5013798;28;19956;-62
2021/12/28 04:49:54;;;;;;;;;;;10.20;89.90;;;;;;5013320;28;19926;-63
2021/12/28 04:52:19;;;;;;;;;;;10.10;89.90;;;;;;5013579;28;19953;-63
2021/12/28 04:54:45;;;;;;;;;;;10.20;90.00;;;;;;5013403;28;19916;-62
2021/12/28 04:57:11;;;;;;;;;;;10.20;89.90;;;;;;5012989;28;19910;-63
2021/12/28 04:59:36;;;;;;;;;;;10.20;89.90;;;;;;5013504;28;19914;-62
2021/12/28 05:02:02;;;;;;;;;;;10.20;89.80;;;;;;5013462;28;19918;-66
2021/12/28 05:04:28;;;;;;;;;;;10.20;89.60;;;;;;5013642;28;19932;-63
2021/12/28 05:06:54;;;;;;;;;;;10.20;89.70;;;;;;5013225;28;20354;-63
2021/12/28 05:09:20;;;;;;;;;;;10.20;89.50;;;;;;5013523;28;19913;-62
2021/12/28 05:11:46;;;;;;;;;;;10.20;89.70;;;;;;5013529;28;19910;-65
2021/12/28 05:14:12;;;;;;;;;;;10.20;89.80;;;;;;5013484;28;19909;-63
2021/12/28 05:16:38;;;;;;;;;;;10.20;90.00;;;;;;5013708;28;20262;-62
2021/12/28 05:19:04;;;;;;;;;;;10.30;89.90;;;;;;5013436;28;20333;-64
2021/12/28 05:21:30;;;;;;;;;;;10.40;89.20;;;;;;5013315;28;19920;-62
2021/12/28 05:23:56;;;;;;;;;;;10.40;89.10;;;;;;5013185;28;19917;-62
2021/12/28 05:26:22;;;;;;;;;;;10.30;89.20;;;;;;5013403;28;19910;-62
2021/12/28 05:28:48;;;;;;;;;;;10.30;89.30;;;;;;5013291;28;19964;-63
2021/12/28 05:31:13;;;;;;;;;;;10.30;89.60;;;;;;5013328;28;20285;-62
2021/12/28 05:33:39;;;;;;;;;;;10.30;89.80;;;;;;5013040;28;20336;-62
2021/12/28 05:36:05;;;;;;;;;;;10.20;89.90;;;;;;5013251;28;19910;-63
2021/12/28 05:38:31;;;;;;;;;;;10.30;89.90;;;;;;5013175;28;19909;-63
2021/12/28 05:40:56;;;;;;;;;;;10.20;89.90;;;;;;5012991;28;19914;-62
2021/12/28 05:43:22;;;;;;;;;;;10.20;90.30;;;;;;5013241;28;19909;-63
2021/12/28 05:45:47;;;;;;;;;;;10.20;90.30;;;;;;5012962;28;20004;-62
2021/12/28 05:48:13;;;;;;;;;;;10.20;89.90;;;;;;5013211;28;19913;-62
2021/12/28 05:50:39;;;;;;;;;;;10.20;89.90;;;;;;5012744;28;19922;-62
2021/12/28 05:53:04;;;;;;;;;;;10.20;90.00;;;;;;5013147;28;19910;-62
2021/12/28 05:55:30;;;;;;;;;;;10.20;90.00;;;;;;5013105;28;19909;-62
2021/12/28 05:57:56;;;;;;;;;;;10.20;89.80;;;;;;5013046;28;19917;-64
2021/12/28 06:00:21;;;;;;;;;;;10.20;89.70;;;;;;5012840;28;20453;-62
2021/12/28 06:02:47;;;;;;;;;;;10.20;89.70;;;;;;5013077;28;19921;-63
2021/12/28 06:05:13;;;;;;;;;;;10.20;89.70;;;;;;5012985;28;19909;-63
2021/12/28 06:07:38;;;;;;;;;;;10.30;89.80;;;;;;5012805;28;19910;-62
2021/12/28 06:10:05;;;;;;;;;;;10.30;89.30;;;;;;5014845;28;19910;-63
2021/12/28 06:12:30;;;;;;;;;;;10.40;89.10;;;;;;5016480;28;20374;-63
2021/12/28 06:14:56;;;;;;;;;;;10.30;89.10;;;;;;5016532;28;19949;-65
2021/12/28 06:17:21;;;;;;;;;;;10.30;89.40;;;;;;5016126;28;20396;-63
2021/12/28 06:19:47;;;;;;;;;;;10.30;89.40;;;;;;5016036;28;19960;-63
2021/12/28 06:22:13;;;;;;;;;;;10.30;89.30;;;;;;5016014;28;19961;-63
2021/12/28 06:24:39;;;;;;;;;;;10.30;89.30;;;;;;5016029;28;19956;-63
2021/12/28 06:27:04;;;;;;;;;;;10.30;89.40;;;;;;5016014;28;19910;-62
2021/12/28 06:29:30;;;;;;;;;;;10.20;89.60;;;;;;5015934;28;20385;-63
2021/12/28 06:31:56;;;;;;;;;;;10.20;89.70;;;;;;5016257;28;20278;-62
2021/12/28 06:34:21;;;;;;;;;;;10.20;89.70;;;;;;5016150;28;19909;-62
2021/12/28 06:36:47;;;;;;;;;;;10.20;89.90;;;;;;5015965;28;19917;-62
2021/12/28 06:39:12;;;;;;;;;;;10.00;90.40;;;;;;5016241;28;19909;-64
2021/12/28 06:41:42;;;;;;;;;;;10.00;90.60;;;;;;4984077;28;19924;-61
2021/12/28 06:44:12;;;;;;;;;;;10.10;90.60;;;;;;4694751;28;20504;-61
2021/12/28 06:46:39;;;;;;;;;;;10.10;90.50;;;;;;4894153;28;19909;-63
2021/12/28 06:49:05;;;;;;;;;;;10.10;90.40;;;;;;5015770;28;20012;-61
2021/12/28 06:51:31;;;;;;;;;;;10.20;90.20;;;;;;5015788;28;19921;-62
2021/12/28 06:53:56;;;;;;;;;;;10.30;90.20;;;;;;5015605;28;19914;-62
2021/12/28 06:56:22;;;;;;;;;;;10.30;90.10;;;;;;5015846;28;19933;-62
2021/12/28 06:58:48;;;;;;;;;;;10.30;90.10;;;;;;5015784;28;19909;-62
2021/12/28 07:01:13;;;;;;;;;;;10.30;90.10;;;;;;5016185;28;19914;-61
2021/12/28 07:03:39;;;;;;;;;;;10.40;90.80;;;;;;5016724;28;20481;-60
2021/12/28 07:06:06;;;;;;;;;;;10.80;90.00;;;;;;5016970;28;19921;-66
2021/12/28 07:08:32;;;;;;;;;;;10.90;88.20;;;;;;5015967;28;19937;-65
2021/12/28 07:10:58;;;;;;;;;;;11.00;87.50;;;;;;5023321;28;19917;-61
2021/12/28 07:13:24;;;;;;;;;;;11.00;87.40;;;;;;5020698;28;19910;-61
2021/12/28 07:15:49;;;;;;;;;;;11.00;87.20;;;;;;5021974;28;19909;-61
2021/12/28 07:18:15;;;;;;;;;;;11.20;86.70;;;;;;5020209;28;19963;-63
2021/12/28 07:20:40;;;;;;;;;;;11.20;86.20;;;;;;5021680;28;19916;-62
2021/12/28 07:23:06;;;;;;;;;;;11.30;85.80;;;;;;5020439;28;19917;-61
2021/12/28 07:25:31;;;;;;;;;;;11.30;85.90;;;;;;5016569;28;19910;-59
2021/12/28 07:27:57;;;;;;;;;;;11.20;85.90;;;;;;5017102;28;19914;-59
2021/12/28 07:30:23;;;;;;;;;;;11.00;86.70;;;;;;5015094;28;19909;-69
2021/12/28 07:32:48;;;;;;;;;;;10.90;87.40;;;;;;5014844;28;19916;-63
2021/12/28 07:35:14;;;;;;;;;;;10.80;88.00;;;;;;5014871;28;19909;-62
2021/12/28 07:37:40;;;;;;;;;;;10.80;88.10;;;;;;5014753;28;19909;-63
2021/12/28 07:40:06;;;;;;;;;;;10.70;88.30;;;;;;5025207;28;19913;-63
2021/12/28 07:42:33;;;;;;;;;;;10.70;88.50;;;;;;5034235;28;19925;-60
2021/12/28 07:44:59;;;;;;;;;;;10.70;88.40;;;;;;5034498;28;20427;-60
2021/12/28 07:47:24;;;;;;;;;;;10.80;88.60;;;;;;5034663;28;20380;-60
2021/12/28 07:49:50;;;;;;;;;;;10.80;88.30;;;;;;5034327;28;19924;-63
2021/12/28 07:52:15;;;;;;;;;;;10.80;88.40;;;;;;5034937;28;19916;-60
2021/12/28 07:54:41;;;;;;;;;;;10.80;88.40;;;;;;5034348;28;20424;-60
2021/12/28 07:57:07;;;;;;;;;;;10.70;89.00;;;;;;5034784;28;19928;-60
2021/12/28 07:59:32;;;;;;;;;;;10.70;89.20;;;;;;5033850;28;19909;-59
2021/12/28 08:01:58;;;;;;;;;;;10.70;89.30;;;;;;5033321;28;19971;-60
2021/12/28 08:04:27;;;;;;;;;;;10.70;89.30;;;;;;5033562;28;20000;-66
2021/12/28 08:06:53;;;;;;;;;;;10.70;89.40;;;;;;5033608;28;19956;-63
2021/12/28 08:09:19;;;;;;;;;;;10.80;89.30;;;;;;5034321;28;19913;-63
2021/12/28 08:11:44;;;;;;;;;;;10.80;89.30;;;;;;5034074;28;20022;-63
2021/12/28 08:14:10;;;;;;;;;;;10.80;89.30;;;;;;5015872;28;19920;-72
2021/12/28 08:16:36;;;;;;;;;;;10.90;89.00;;;;;;5014368;28;19909;-61
2021/12/28 08:19:02;;;;;;;;;;;10.90;88.80;;;;;;5014136;28;19975;-63
2021/12/28 08:21:28;;;;;;;;;;;10.90;89.10;;;;;;5013721;28;19967;-59
2021/12/28 08:23:53;;;;;;;;;;;10.90;89.20;;;;;;5013529;28;19913;-61
2021/12/28 08:26:19;;;;;;;;;;;10.90;88.90;;;;;;5013665;28;19913;-59
2021/12/28 08:28:44;;;;;;;;;;;10.90;88.90;;;;;;5028836;28;19920;-61
2021/12/28 08:31:10;;;;;;;;;;;10.90;89.00;;;;;;5032272;28;20036;-59
2021/12/28 08:33:35;;;;;;;;;;;11.00;89.40;;;;;;5032105;28;20242;-59
2021/12/28 08:36:01;;;;;;;;;;;11.00;89.20;;;;;;5032800;28;19963;-65
2021/12/28 08:38:27;;;;;;;;;;;11.00;89.00;;;;;;5032936;28;19913;-60
2021/12/28 08:40:53;;;;;;;;;;;11.00;88.50;;;;;;5032749;28;19968;-59
2021/12/28 08:43:19;;;;;;;;;;;10.90;88.40;;;;;;5032840;28;19913;-60
2021/12/28 08:45:45;;;;;;;;;;;10.70;89.70;;;;;;5033065;28;20403;-61
2021/12/28 08:48:13;;;;;;;;;;;10.60;90.00;;;;;;5032635;28;19963;-63
2021/12/28 08:50:39;;;;;;;;;;;10.60;90.20;;;;;;5032130;28;19921;-60
2021/12/28 08:53:05;;;;;;;;;;;10.70;90.10;;;;;;5032454;28;20266;-63
2021/12/28 08:55:30;;;;;;;;;;;10.70;90.00;;;;;;5032525;28;19924;-60
2021/12/28 08:57:56;;;;;;;;;;;10.70;90.00;;;;;;5032823;28;19913;-61
2021/12/28 09:00:23;;;;;;;;;;;10.80;89.60;;;;;;5032460;28;19996;-60
2021/12/28 09:02:50;;;;;;;;;;;10.90;89.40;;;;;;5032385;28;19917;-60
2021/12/28 09:05:16;;;;;;;;;;;10.90;89.20;;;;;;5032338;28;20292;-61
2021/12/28 09:07:41;;;;;;;;;;;11.00;88.70;;;;;;5032379;28;20003;-60
2021/12/28 09:10:07;;;;;;;;;;;11.00;88.40;;;;;;5032107;28;20377;-59
2021/12/28 09:12:32;;;;;;;;;;;10.90;88.60;;;;;;5014768;28;19909;-61
2021/12/28 09:14:58;;;;;;;;;;;10.90;89.30;;;;;;5032208;28;20407;-60
2021/12/28 09:17:24;;;;;;;;;;;11.00;88.90;;;;;;5032168;28;20284;-60
2021/12/28 09:19:49;;;;;;;;;;;11.10;88.70;;;;;;5032398;28;20357;-62
2021/12/28 09:22:15;;;;;;;;;;;11.20;89.10;;;;;;5032286;28;19921;-59
2021/12/28 09:24:40;;;;;;;;;;;11.10;88.40;;;;;;5032782;28;19963;-63
2021/12/28 09:27:06;;;;;;;;;;;11.20;88.10;;;;;;5032770;28;19909;-66
2021/12/28 09:29:32;;;;;;;;;;;11.20;87.80;;;;;;5032448;28;20004;-60
2021/12/28 09:31:59;;;;;;;;;;;11.20;87.80;;;;;;5032804;28;19952;-61
2021/12/28 09:34:24;;;;;;;;;;;11.00;88.20;;;;;;5033048;28;19909;-59
2021/12/28 09:36:50;;;;;;;;;;;11.10;88.50;;;;;;5032042;28;19935;-59
2021/12/28 09:39:22;;;;;;;;;;;11.10;88.60;;;;;;5032541;28;19917;-60
2021/12/28 09:41:51;;;;;;;;;;;11.20;88.40;;;;;;5032175;28;20008;-59
2021/12/28 09:44:17;;;;;;;;;;;11.10;88.30;;;;;;5035037;28;19935;-64
2021/12/28 09:46:42;;;;;;;;;;;11.20;88.10;;;;;;5036585;28;20368;-64
2021/12/28 09:49:08;;;;;;;;;;;11.20;87.70;;;;;;5036450;28;20277;-64
2021/12/28 09:51:34;;;;;;;;;;;11.30;87.60;;;;;;5018396;28;20386;-60
2021/12/28 09:53:59;;;;;;;;;;;11.40;87.60;;;;;;5036116;28;19913;-61
2021/12/28 09:56:25;;;;;;;;;;;11.40;87.50;;;;;;5036535;28;20327;-60
2021/12/28 09:58:50;;;;;;;;;;;11.40;87.30;;;;;;5036043;28;19936;-60
2021/12/28 10:01:16;;;;;;;;;;;11.30;87.20;;;;;;5035929;28;19919;-61
2021/12/28 10:03:42;;;;;;;;;;;11.30;87.40;;;;;;5036076;28;19916;-63
2021/12/28 10:06:15;;;;;;;;;;;11.20;86.80;;;;;;5036034;28;19920;-60
2021/12/28 10:08:41;;;;;;;;;;;11.20;87.60;;;;;;5035964;28;19913;-61
2021/12/28 10:11:07;;;;;;;;;;;11.30;87.40;;;;;;5036046;28;19971;-62
2021/12/28 10:13:33;;;;;;;;;;;11.20;87.00;;;;;;5036171;28;20300;-60
2021/12/28 10:15:58;;;;;;;;;;;11.30;86.70;;;;;;5036158;28;19913;-60
2021/12/28 10:18:24;;;;;;;;;;;11.40;86.70;;;;;;5035811;28;19917;-60
2021/12/28 10:20:55;;;;;;;;;;;11.40;86.60;;;;;;5035758;28;19955;-60
2021/12/28 10:23:22;;;;;;;;;;;11.40;86.60;;;;;;5035770;28;19913;-60
2021/12/28 10:25:54;;;;;;;;;;;11.50;86.70;;;;;;5035743;28;19999;-60
2021/12/28 10:28:25;;;;;;;;;;;11.50;86.70;;;;;;5035974;28;19916;-60
2021/12/28 10:30:55;;;;;;;;;;;11.60;86.20;;;;;;5035652;28;19948;-60
2021/12/28 10:33:22;;;;;;;;;;;11.50;85.80;;;;;;5035779;28;20004;-60
2021/12/28 10:35:50;;;;;;;;;;;11.50;85.80;;;;;;5035498;28;19923;-60
2021/12/28 10:38:18;;;;;;;;;;;11.60;85.90;;;;;;5035433;28;19916;-60
2021/12/28 10:40:49;;;;;;;;;;;11.70;86.00;;;;;;5035222;28;20356;-60
2021/12/28 10:43:17;;;;;;;;;;;11.70;85.60;;;;;;5035570;28;19939;-59
2021/12/28 10:45:48;;;;;;;;;;;11.40;86.10;;;;;;5035538;28;20361;-60
2021/12/28 10:48:15;;;;;;;;;;;11.40;86.10;;;;;;5035453;28;19909;-60
2021/12/28 10:50:54;;;;;;;;;;;11.50;86.20;;;;;;5035188;28;19921;-60
2021/12/28 10:53:25;;;;;;;;;;;11.70;85.40;;;;;;5035251;28;19909;-59
2021/12/28 10:55:55;;;;;;;;;;;11.80;85.00;;;;;;5034432;28;20353;-60
2021/12/28 10:58:22;;;;;;;;;;;11.80;84.20;;;;;;5035206;28;19909;-62
2021/12/28 11:00:48;;;;;;;;;;;11.80;84.40;;;;;;5035312;28;19914;-59
2021/12/28 11:03:17;;;;;;;;;;;11.80;84.30;;;;;;5034818;28;19917;-60
2021/12/28 11:05:44;;;;;;;;;;;11.80;84.10;;;;;;5035085;28;20277;-60
2021/12/28 11:08:09;;;;;;;;;;;11.80;83.90;;;;;;5034887;28;20415;-65
2021/12/28 11:10:39;;;;;;;;;;;11.80;83.80;;;;;;5034820;28;19909;-60
2021/12/28 11:13:04;;;;;;;;;;;11.80;84.10;;;;;;5034980;28;19929;-60
2021/12/28 11:15:36;;;;;;;;;;;11.80;84.20;;;;;;5034421;28;19914;-59
2021/12/28 11:18:21;;;;;;;;;;;11.80;84.10;;;;;;5034741;28;19999;-60
2021/12/28 11:20:47;;;;;;;;;;;11.90;83.60;;;;;;5034763;28;20008;-59
2021/12/28 11:23:15;;;;;;;;;;;12.00;83.60;;;;;;5034627;28;19932;-60
2021/12/28 11:25:40;;;;;;;;;;;11.90;83.40;;;;;;5034298;28;19949;-59
2021/12/28 11:28:19;;;;;;;;;;;11.80;83.80;;;;;;5034642;28;19956;-59
2021/12/28 11:30:57;;;;;;;;;;;11.70;84.90;;;;;;5034326;28;19913;-60
2021/12/28 11:33:23;;;;;;;;;;;11.60;85.50;;;;;;5034584;28;19909;-61
2021/12/28 11:35:48;;;;;;;;;;;11.60;86.20;;;;;;5034452;28;19996;-62
2021/12/28 11:38:14;;;;;;;;;;;11.70;86.10;;;;;;5034353;28;20023;-60
2021/12/28 11:40:39;;;;;;;;;;;11.70;85.80;;;;;;5034412;28;19915;-60
2021/12/28 11:43:05;;;;;;;;;;;11.70;85.80;;;;;;5034342;28;19935;-60
2021/12/28 11:45:31;;;;;;;;;;;11.80;85.20;;;;;;5034627;28;19955;-60
2021/12/28 11:47:58;;;;;;;;;;;11.80;84.80;;;;;;5034356;28;20004;-60
2021/12/28 11:50:24;;;;;;;;;;;11.80;84.20;;;;;;5016488;28;20357;-61
2021/12/28 11:52:52;;;;;;;;;;;11.90;84.00;;;;;;5035044;28;19916;-64
2021/12/28 11:55:18;;;;;;;;;;;11.90;84.00;;;;;;5035077;28;20003;-60
2021/12/28 11:57:51;;;;;;;;;;;11.90;84.10;;;;;;5037484;28;19968;-59
2021/12/28 12:00:19;;;;;;;;;;;11.80;84.10;;;;;;5036609;28;19909;-60
2021/12/28 12:02:53;;;;;;;;;;;11.70;83.60;;;;;;5037178;28;19953;-61
2021/12/28 12:05:24;;;;;;;;;;;11.70;83.80;;;;;;5034326;28;19916;-59
2021/12/28 12:08:07;;;;;;;;;;;11.70;84.20;;;;;;5033626;28;20380;-59
2021/12/28 12:10:34;;;;;;;;;;;11.70;84.50;;;;;;5033716;28;19985;-60
2021/12/28 12:13:02;;;;;;;;;;;11.60;84.40;;;;;;5033721;28;20014;-59
2021/12/28 12:15:39;;;;;;;;;;;11.50;84.20;;;;;;5033635;28;20388;-59
2021/12/28 12:18:07;;;;;;;;;;;11.50;84.50;;;;;;5033833;28;20284;-59
2021/12/28 12:20:33;;;;;;;;;;;11.60;84.30;;;;;;5033308;28;20253;-58
2021/12/28 12:23:07;;;;;;;;;;;11.70;84.60;;;;;;5033764;28;19917;-59
2021/12/28 12:25:48;;;;;;;;;;;11.70;83.90;;;;;;5033967;28;20336;-63
2021/12/28 12:28:14;;;;;;;;;;;11.70;83.70;;;;;;5033665;28;19909;-62
2021/12/28 12:31:06;;;;;;;;;;;11.70;83.40;;;;;;5033582;28;20322;-61
2021/12/28 12:33:36;;;;;;;;;;;11.70;82.90;;;;;;5031384;28;19915;-65
2021/12/28 12:36:02;;;;;;;;;;;11.80;82.60;;;;;;5032852;28;20419;-63
2021/12/28 12:38:28;;;;;;;;;;;11.70;82.70;;;;;;5032674;28;19917;-59
2021/12/28 12:41:01;;;;;;;;;;;11.70;82.60;;;;;;5032464;28;20353;-64
2021/12/28 12:43:27;;;;;;;;;;;11.80;82.40;;;;;;5032314;28;19928;-62
2021/12/28 12:45:52;;;;;;;;;;;11.80;82.80;;;;;;5032548;28;19913;-61
2021/12/28 12:48:31;;;;;;;;;;;11.70;82.70;;;;;;5032658;28;19913;-59
2021/12/28 12:51:16;;;;;;;;;;;11.70;82.70;;;;;;5032391;28;20344;-60
2021/12/28 12:53:43;;;;;;;;;;;11.70;82.50;;;;;;5032603;28;19909;-60
2021/12/28 12:56:16;;;;;;;;;;;11.70;82.40;;;;;;5032353;28;19920;-61
2021/12/28 12:58:46;;;;;;;;;;;11.70;82.10;;;;;;5032492;28;20357;-62
2021/12/28 13:01:36;;;;;;;;;;;11.70;82.20;;;;;;5032336;28;19959;-58
2021/12/28 13:04:03;;;;;;;;;;;11.70;82.10;;;;;;5032286;28;19920;-60
2021/12/28 13:06:40;;;;;;;;;;;11.80;81.90;;;;;;5032377;28;19916;-59
2021/12/28 13:09:13;;;;;;;;;;;11.70;82.10;;;;;;5032379;28;19913;-61
2021/12/28 13:11:39;;;;;;;;;;;11.70;82.30;;;;;;5032207;28;19952;-61
2021/12/28 13:14:05;;;;;;;;;;;11.70;82.20;;;;;;5032426;28;19924;-66
2021/12/28 13:16:31;;;;;;;;;;;11.70;82.20;;;;;;5014170;28;19909;-57
2021/12/28 13:19:09;;;;;;;;;;;11.60;82.20;;;;;;5034381;28;20008;-58
2021/12/28 13:21:35;;;;;;;;;;;11.60;83.00;;;;;;5035966;28;19917;-61
2021/12/28 13:24:11;;;;;;;;;;;11.70;83.10;;;;;;5036333;28;20332;-63
2021/12/28 13:26:42;;;;;;;;;;;11.70;82.40;;;;;;5035877;28;19913;-58
2021/12/28 13:29:08;;;;;;;;;;;11.60;81.80;;;;;;5036170;28;20373;-59
2021/12/28 13:31:33;;;;;;;;;;;11.60;82.00;;;;;;5035522;28;19913;-59
2021/12/28 13:34:00;;;;;;;;;;;11.60;82.30;;;;;;5036320;28;20372;-58
2021/12/28 13:36:27;;;;;;;;;;;11.60;82.40;;;;;;5035844;28;20380;-59
2021/12/28 13:39:06;;;;;;;;;;;11.60;82.20;;;;;;5035928;28;19920;-61
2021/12/28 13:41:31;;;;;;;;;;;11.60;81.90;;;;;;5017904;28;19921;-59
2021/12/28 13:44:04;;;;;;;;;;;11.60;81.80;;;;;;5036105;28;19921;-64
2021/12/28 13:46:29;;;;;;;;;;;11.50;81.60;;;;;;5035590;28;19948;-57
2021/12/28 13:48:58;;;;;;;;;;;11.60;81.50;;;;;;5035513;28;20392;-56
2021/12/28 13:51:24;;;;;;;;;;;11.60;81.80;;;;;;5035474;28;19910;-59
2021/12/28 13:54:00;;;;;;;;;;;11.60;81.50;;;;;;5035818;28;19915;-60
2021/12/28 13:56:34;;;;;;;;;;;11.70;81.30;;;;;;5035299;28;19916;-63
2021/12/28 13:59:01;;;;;;;;;;;11.60;81.30;;;;;;5035517;28;19913;-60
2021/12/28 14:01:28;;;;;;;;;;;11.60;80.80;;;;;;5035337;28;20364;-62
2021/12/28 14:04:26;;;;;;;;;;;11.60;80.80;;;;;;5036007;28;20348;-61
2021/12/28 14:06:54;;;;;;;;;;;11.60;80.40;;;;;;5006023;28;19933;-59
2021/12/28 14:09:27;;;;;;;;;;;11.60;80.60;;;;;;5039366;28;19966;-75
2021/12/28 14:11:53;;;;;;;;;;;11.60;80.80;;;;;;5035149;28;19959;-64
2021/12/28 14:14:23;;;;;;;;;;;11.60;81.10;;;;;;5034090;28;20364;-61
2021/12/28 14:16:52;;;;;;;;;;;11.60;81.10;;;;;;5035282;28;19924;-63